sensor_id;sensor_type;location;lat;lon;timestamp;pressure;altitude;pressure_sealevel;temperature;humidity
6899;BME280;3488;42.616;23.350;2023-01-27T00:00:55;62058.88;;;0.56;100.00
6899;BME280;3488;42.616;23.350;2023-01-27T00:03:24;62063.03;;;0.63;100.00
6899;BME280;3488;42.616;23.350;2023-01-27T00:05:51;62052.22;;;0.50;100.00
6899;BME280;3488;42.616;23.350;2023-01-27T00:08:18;62056.38;;;0.56;100.00
6899;BME280;3488;42.616;23.350;2023-01-27T00:10:45;62061.94;;;0.59;100.00
6899;BME280;3488;42.616;23.350;2023-01-27T00:13:32;62063.03;;;0.63;100.00
6899;BME280;3488;42.616;23.350;2023-01-27T00:15:58;62057.47;;;0.60;100.00
6899;BME280;3488;42.616;23.350;2023-01-27T00:18:26;62040.03;;;0.43;100.00
6899;BME280;3488;42.616;23.350;2023-01-27T00:20:53;62004.47;;;0.00;100.00
6899;BME280;3488;42.616;23.350;2023-01-27T00:23:38;62015.88;;;0.17;100.00
6899;BME280;3488;42.616;23.350;2023-01-27T00:26:22;62028.59;;;0.24;100.00
6899;BME280;3488;42.616;23.350;2023-01-27T00:28:49;62001.47;;;0.00;100.00
6899;BME280;3488;42.616;23.350;2023-01-27T00:31:16;62003.13;;;0.07;100.00
6899;BME280;3488;42.616;23.350;2023-01-27T00:34:02;62013.78;;;0.12;100.00
6899;BME280;3488;42.616;23.350;2023-01-27T00:36:34;61979.63;;;-0.14;100.00
6899;BME280;3488;42.616;23.350;2023-01-27T00:39:02;62007.63;;;0.06;100.00
6899;BME280;3488;42.616;23.350;2023-01-27T00:41:29;61996.97;;;0.00;100.00
6899;BME280;3488;42.616;23.350;2023-01-27T00:43:57;61997.31;;;-0.07;100.00
6899;BME280;3488;42.616;23.350;2023-01-27T00:46:24;62015.38;;;0.16;100.00
6899;BME280;3488;42.616;23.350;2023-01-27T00:48:52;62019.47;;;0.20;100.00
6899;BME280;3488;42.616;23.350;2023-01-27T00:51:20;62023.56;;;0.24;100.00
6899;BME280;3488;42.616;23.350;2023-01-27T00:53:47;62034.91;;;0.38;100.00
6899;BME280;3488;42.616;23.350;2023-01-27T00:56:15;62037.41;;;0.38;100.00
6899;BME280;3488;42.616;23.350;2023-01-27T00:58:42;62052.72;;;0.50;100.00
6899;BME280;3488;42.616;23.350;2023-01-27T01:01:10;62049.72;;;0.50;100.00
6899;BME280;3488;42.616;23.350;2023-01-27T01:03:37;62058.44;;;0.58;100.00
6899;BME280;3488;42.616;23.350;2023-01-27T01:06:06;62068.59;;;0.66;100.00
6899;BME280;3488;42.616;23.350;2023-01-27T01:08:36;62056.94;;;0.59;100.00
6899;BME280;3488;42.616;23.350;2023-01-27T01:11:04;62043.09;;;0.46;100.00
6899;BME280;3488;42.616;23.350;2023-01-27T01:13:32;62037.91;;;0.38;100.00
6899;BME280;3488;42.616;23.350;2023-01-27T01:16:04;62021.47;;;0.20;100.00
6899;BME280;3488;42.616;23.350;2023-01-27T01:18:31;62032.84;;;0.36;100.00
6899;BME280;3488;42.616;23.350;2023-01-27T01:20:59;62047.53;;;0.43;100.00
6899;BME280;3488;42.616;23.350;2023-01-27T01:23:27;62032.22;;;0.30;100.00
6899;BME280;3488;42.616;23.350;2023-01-27T01:25:56;62033.81;;;0.34;100.00
6899;BME280;3488;42.616;23.350;2023-01-27T01:28:24;62034.84;;;0.35;100.00
6899;BME280;3488;42.616;23.350;2023-01-27T01:30:51;62040.47;;;0.41;100.00
6899;BME280;3488;42.616;23.350;2023-01-27T01:33:18;62039.47;;;0.40;100.00
6899;BME280;3488;42.616;23.350;2023-01-27T01:35:46;62041.91;;;0.37;100.00
6899;BME280;3488;42.616;23.350;2023-01-27T01:38:13;62023.06;;;0.24;100.00
6899;BME280;3488;42.616;23.350;2023-01-27T01:40:40;62024.66;;;0.28;100.00
6899;BME280;3488;42.616;23.350;2023-01-27T01:43:14;62035.41;;;0.38;100.00
6899;BME280;3488;42.616;23.350;2023-01-27T01:45:47;62040.53;;;0.43;100.00
6899;BME280;3488;42.616;23.350;2023-01-27T01:48:17;62049.66;;;0.47;100.00
6899;BME280;3488;42.616;23.350;2023-01-27T01:50:49;62046.63;;;0.47;100.00
6899;BME280;3488;42.616;23.350;2023-01-27T01:53:17;62053.31;;;0.53;100.00
6899;BME280;3488;42.616;23.350;2023-01-27T01:55:47;62037.47;;;0.40;100.00
6899;BME280;3488;42.616;23.350;2023-01-27T01:58:16;62033.38;;;0.36;100.00
6899;BME280;3488;42.616;23.350;2023-01-27T02:00:45;62006.13;;;0.07;100.00
6899;BME280;3488;42.616;23.350;2023-01-27T02:03:13;61988.28;;;-0.08;100.00
6899;BME280;3488;42.616;23.350;2023-01-27T02:05:42;62006.66;;;0.08;100.00
6899;BME280;3488;42.616;23.350;2023-01-27T02:08:14;61985.72;;;-0.11;100.00
6899;BME280;3488;42.616;23.350;2023-01-27T02:10:42;62012.22;;;0.11;100.00
6899;BME280;3488;42.616;23.350;2023-01-27T02:13:09;62001.97;;;0.00;100.00
6899;BME280;3488;42.616;23.350;2023-01-27T02:15:38;62012.69;;;0.09;100.00
6899;BME280;3488;42.616;23.350;2023-01-27T02:18:06;61987.25;;;-0.09;100.00
6899;BME280;3488;42.616;23.350;2023-01-27T02:20:40;61996.97;;;0.00;100.00
6899;BME280;3488;42.616;23.350;2023-01-27T02:23:18;61983.03;;;-0.18;100.00
6899;BME280;3488;42.616;23.350;2023-01-27T02:25:51;61971.88;;;-0.24;100.00
6899;BME280;3488;42.616;23.350;2023-01-27T02:28:19;61934.88;;;-0.65;100.00
6899;BME280;3488;42.616;23.350;2023-01-27T02:30:46;61957.03;;;-0.39;100.00
6899;BME280;3488;42.616;23.350;2023-01-27T02:33:14;61973.34;;;-0.25;100.00
6899;BME280;3488;42.616;23.350;2023-01-27T02:35:49;61987.13;;;-0.14;100.00
6899;BME280;3488;42.616;23.350;2023-01-27T02:38:18;61997.44;;;-0.02;100.00
6899;BME280;3488;42.616;23.350;2023-01-27T02:40:46;62003.13;;;0.07;100.00
6899;BME280;3488;42.616;23.350;2023-01-27T02:43:15;62013.25;;;0.12;100.00
6899;BME280;3488;42.616;23.350;2023-01-27T02:45:44;62025.16;;;0.28;100.00
6899;BME280;3488;42.616;23.350;2023-01-27T02:48:11;62031.22;;;0.29;100.00
6899;BME280;3488;42.616;23.350;2023-01-27T02:50:39;62013.84;;;0.15;100.00
6899;BME280;3488;42.616;23.350;2023-01-27T02:53:07;62014.34;;;0.15;100.00
6899;BME280;3488;42.616;23.350;2023-01-27T02:55:34;61994.81;;;-0.07;100.00
6899;BME280;3488;42.616;23.350;2023-01-27T02:58:01;62001.09;;;0.05;100.00
6899;BME280;3488;42.616;23.350;2023-01-27T03:00:29;62002.56;;;0.03;100.00
6899;BME280;3488;42.616;23.350;2023-01-27T03:02:56;61998.47;;;-0.01;100.00
6899;BME280;3488;42.616;23.350;2023-01-27T03:05:25;62008.13;;;0.07;100.00
6899;BME280;3488;42.616;23.350;2023-01-27T03:07:52;62013.78;;;0.12;100.00
6899;BME280;3488;42.616;23.350;2023-01-27T03:10:19;61983.72;;;-0.10;100.00
6899;BME280;3488;42.616;23.350;2023-01-27T03:12:46;61986.09;;;-0.15;100.00
6899;BME280;3488;42.616;23.350;2023-01-27T03:15:13;61981.53;;;-0.17;100.00
6899;BME280;3488;42.616;23.350;2023-01-27T03:18:05;61986.22;;;-0.10;100.00
6899;BME280;3488;42.616;23.350;2023-01-27T03:20:41;61963.69;;;-0.32;100.00
6899;BME280;3488;42.616;23.350;2023-01-27T03:23:08;61958.44;;;-0.42;100.00
6899;BME280;3488;42.616;23.350;2023-01-27T03:25:39;61965.09;;;-0.36;100.00
6899;BME280;3488;42.616;23.350;2023-01-27T03:28:07;61951.84;;;-0.46;100.00
6899;BME280;3488;42.616;23.350;2023-01-27T03:30:35;61937.06;;;-0.58;100.00
6899;BME280;3488;42.616;23.350;2023-01-27T03:33:03;61938.97;;;-0.61;100.00
6899;BME280;3488;42.616;23.350;2023-01-27T03:35:33;61957.03;;;-0.39;100.00
6899;BME280;3488;42.616;23.350;2023-01-27T03:38:05;61974.31;;;-0.27;100.00
6899;BME280;3488;42.616;23.350;2023-01-27T03:40:50;61987.63;;;-0.14;100.00
6899;BME280;3488;42.616;23.350;2023-01-27T03:43:35;61978.53;;;-0.18;100.00
6899;BME280;3488;42.616;23.350;2023-01-27T03:46:20;61983.16;;;-0.13;100.00
6899;BME280;3488;42.616;23.350;2023-01-27T03:48:50;61994.31;;;-0.07;100.00
6899;BME280;3488;42.616;23.350;2023-01-27T03:51:18;61998.97;;;0.00;100.00
6899;BME280;3488;42.616;23.350;2023-01-27T03:53:45;61998.41;;;-0.03;100.00
6899;BME280;3488;42.616;23.350;2023-01-27T03:56:12;61977.84;;;-0.26;100.00
6899;BME280;3488;42.616;23.350;2023-01-27T03:58:41;61967.66;;;-0.33;100.00
6899;BME280;3488;42.616;23.350;2023-01-27T04:01:13;61950.94;;;-0.42;100.00
6899;BME280;3488;42.616;23.350;2023-01-27T04:03:41;61958.03;;;-0.38;100.00
6899;BME280;3488;42.616;23.350;2023-01-27T04:06:28;61936.47;;;-0.61;100.00
6899;BME280;3488;42.616;23.350;2023-01-27T04:09:18;61944.16;;;-0.54;100.00
6899;BME280;3488;42.616;23.350;2023-01-27T04:11:46;61962.56;;;-0.38;100.00
6899;BME280;3488;42.616;23.350;2023-01-27T04:14:25;61977.50;;;-0.19;100.00
6899;BME280;3488;42.616;23.350;2023-01-27T04:16:54;62000.91;;;-0.03;100.00
6899;BME280;3488;42.616;23.350;2023-01-27T04:19:22;61979.50;;;-0.19;100.00
6899;BME280;3488;42.616;23.350;2023-01-27T04:21:50;61984.03;;;-0.17;100.00
6899;BME280;3488;42.616;23.350;2023-01-27T04:24:18;61999.94;;;-0.02;100.00
6899;BME280;3488;42.616;23.350;2023-01-27T04:26:54;62004.09;;;0.05;100.00
6899;BME280;3488;42.616;23.350;2023-01-27T04:29:22;62016.97;;;0.20;100.00
6899;BME280;3488;42.616;23.350;2023-01-27T04:31:50;62018.84;;;0.15;100.00
6899;BME280;3488;42.616;23.350;2023-01-27T04:34:17;62020.44;;;0.19;100.00
6899;BME280;3488;42.616;23.350;2023-01-27T04:36:44;62010.81;;;0.14;100.00
6899;BME280;3488;42.616;23.350;2023-01-27T04:39:14;61981.63;;;-0.15;100.00
6899;BME280;3488;42.616;23.350;2023-01-27T04:41:41;61968.25;;;-0.30;100.00
6899;BME280;3488;42.616;23.350;2023-01-27T04:44:09;61980.97;;;-0.20;100.00
6899;BME280;3488;42.616;23.350;2023-01-27T04:46:36;62001.47;;;0.00;100.00
6899;BME280;3488;42.616;23.350;2023-01-27T04:49:04;62006.22;;;0.10;100.00
6899;BME280;3488;42.616;23.350;2023-01-27T04:51:32;62017.41;;;0.18;100.00
6899;BME280;3488;42.616;23.350;2023-01-27T04:54:00;62030.63;;;0.26;100.00
6899;BME280;3488;42.616;23.350;2023-01-27T04:56:31;62045.53;;;0.43;100.00
6899;BME280;3488;42.616;23.350;2023-01-27T04:59:00;62042.09;;;0.45;100.00
6899;BME280;3488;42.616;23.350;2023-01-27T05:01:28;62054.38;;;0.57;100.00
6899;BME280;3488;42.616;23.350;2023-01-27T05:03:55;62055.84;;;0.56;100.00
6899;BME280;3488;42.616;23.350;2023-01-27T05:06:23;62070.66;;;0.68;100.00
6899;BME280;3488;42.616;23.350;2023-01-27T05:08:50;62047.16;;;0.47;100.00
6899;BME280;3488;42.616;23.350;2023-01-27T05:11:18;62017.88;;;0.16;100.00
6899;BME280;3488;42.616;23.350;2023-01-27T05:13:47;61996.84;;;-0.05;100.00
6899;BME280;3488;42.616;23.350;2023-01-27T05:16:15;61991.28;;;-0.08;100.00
6899;BME280;3488;42.616;23.350;2023-01-27T05:18:44;61968.25;;;-0.30;100.00
6899;BME280;3488;42.616;23.350;2023-01-27T05:21:13;61983.03;;;-0.18;100.00
6899;BME280;3488;42.616;23.350;2023-01-27T05:23:40;61989.81;;;-0.07;100.00
6899;BME280;3488;42.616;23.350;2023-01-27T05:26:10;61986.66;;;-0.12;100.00
6899;BME280;3488;42.616;23.350;2023-01-27T05:28:39;61984.81;;;-0.07;100.00
6899;BME280;3488;42.616;23.350;2023-01-27T05:31:10;62005.56;;;0.04;100.00
6899;BME280;3488;42.616;23.350;2023-01-27T05:33:39;62012.34;;;0.16;100.00
6899;BME280;3488;42.616;23.350;2023-01-27T05:36:08;62016.34;;;0.15;100.00
6899;BME280;3488;42.616;23.350;2023-01-27T05:38:35;61975.94;;;-0.23;100.00
6899;BME280;3488;42.616;23.350;2023-01-27T05:41:04;61959.00;;;-0.39;100.00
6899;BME280;3488;42.616;23.350;2023-01-27T05:43:33;61987.25;;;-0.09;100.00
6899;BME280;3488;42.616;23.350;2023-01-27T05:46:02;62003.06;;;0.04;100.00
6899;BME280;3488;42.616;23.350;2023-01-27T05:48:32;62002.09;;;0.06;100.00
6899;BME280;3488;42.616;23.350;2023-01-27T05:50:59;62020.94;;;0.19;100.00
6899;BME280;3488;42.616;23.350;2023-01-27T05:53:27;62022.59;;;0.26;100.00
6899;BME280;3488;42.616;23.350;2023-01-27T05:55:53;62025.63;;;0.26;100.00
6899;BME280;3488;42.616;23.350;2023-01-27T05:58:21;62030.72;;;0.31;100.00
6899;BME280;3488;42.616;23.350;2023-01-27T06:00:49;62043.56;;;0.44;100.00
6899;BME280;3488;42.616;23.350;2023-01-27T06:03:16;62048.22;;;0.51;100.00
6899;BME280;3488;42.616;23.350;2023-01-27T06:05:55;62059.84;;;0.55;100.00
6899;BME280;3488;42.616;23.350;2023-01-27T06:08:23;62035.94;;;0.39;100.00
6899;BME280;3488;42.616;23.350;2023-01-27T06:10:51;62027.16;;;0.28;100.00
6899;BME280;3488;42.616;23.350;2023-01-27T06:13:20;62043.50;;;0.41;100.00
6899;BME280;3488;42.616;23.350;2023-01-27T06:15:48;62036.00;;;0.41;100.00
6899;BME280;3488;42.616;23.350;2023-01-27T06:18:17;62048.63;;;0.46;100.00
6899;BME280;3488;42.616;23.350;2023-01-27T06:20:45;62059.50;;;0.62;100.00
6899;BME280;3488;42.616;23.350;2023-01-27T06:23:15;62074.78;;;0.72;100.00
6899;BME280;3488;42.616;23.350;2023-01-27T06:25:45;62078.38;;;0.75;100.00
6899;BME280;3488;42.616;23.350;2023-01-27T06:28:13;62089.19;;;0.88;100.00
6899;BME280;3488;42.616;23.350;2023-01-27T06:30:40;62097.84;;;0.94;100.00
6899;BME280;3488;42.616;23.350;2023-01-27T06:33:09;62098.88;;;0.95;100.00
6899;BME280;3488;42.616;23.350;2023-01-27T06:35:38;62096.88;;;0.96;100.00
6899;BME280;3488;42.616;23.350;2023-01-27T06:38:07;62073.81;;;0.73;100.00
6899;BME280;3488;42.616;23.350;2023-01-27T06:40:35;62051.81;;;0.54;100.00
6899;BME280;3488;42.616;23.350;2023-01-27T06:43:02;62066.19;;;0.68;100.00
6899;BME280;3488;42.616;23.350;2023-01-27T06:45:29;62064.06;;;0.64;100.00
6899;BME280;3488;42.616;23.350;2023-01-27T06:47:58;62074.25;;;0.71;100.00
6899;BME280;3488;42.616;23.350;2023-01-27T06:50:27;62078.47;;;0.80;100.00
6899;BME280;3488;42.616;23.350;2023-01-27T06:52:59;62035.88;;;0.36;100.00
6899;BME280;3488;42.616;23.350;2023-01-27T06:55:27;62030.25;;;0.31;100.00
6899;BME280;3488;42.616;23.350;2023-01-27T06:57:56;62047.25;;;0.52;100.00
6899;BME280;3488;42.616;23.350;2023-01-27T07:00:23;62061.56;;;0.64;100.00
6899;BME280;3488;42.616;23.350;2023-01-27T07:02:51;62069.66;;;0.67;100.00
6899;BME280;3488;42.616;23.350;2023-01-27T07:05:20;62061.94;;;0.59;100.00
6899;BME280;3488;42.616;23.350;2023-01-27T07:07:47;62075.78;;;0.73;100.00
6899;BME280;3488;42.616;23.350;2023-01-27T07:10:14;62057.28;;;0.52;100.00
6899;BME280;3488;42.616;23.350;2023-01-27T07:12:41;62074.69;;;0.69;100.00
6899;BME280;3488;42.616;23.350;2023-01-27T07:15:10;62073.91;;;0.78;100.00
6899;BME280;3488;42.616;23.350;2023-01-27T07:17:38;62091.22;;;0.90;100.00
6899;BME280;3488;42.616;23.350;2023-01-27T07:20:06;62094.81;;;0.94;100.00
6899;BME280;3488;42.616;23.350;2023-01-27T07:22:34;62100.91;;;0.97;100.00
6899;BME280;3488;42.616;23.350;2023-01-27T07:25:01;62102.06;;;1.03;100.00
6899;BME280;3488;42.616;23.350;2023-01-27T07:27:28;62112.22;;;1.08;100.00
6899;BME280;3488;42.616;23.350;2023-01-27T07:29:55;62115.22;;;1.09;100.00
6899;BME280;3488;42.616;23.350;2023-01-27T07:32:24;62114.84;;;1.13;100.00
6899;BME280;3488;42.616;23.350;2023-01-27T07:34:51;62085.03;;;0.82;100.00
6899;BME280;3488;42.616;23.350;2023-01-27T07:37:18;62066.19;;;0.68;100.00
6899;BME280;3488;42.616;23.350;2023-01-27T07:39:45;62043.56;;;0.44;100.00
6899;BME280;3488;42.616;23.350;2023-01-27T07:42:12;62071.13;;;0.66;100.00
6899;BME280;3488;42.616;23.350;2023-01-27T07:44:39;62084.56;;;0.84;100.00
6899;BME280;3488;42.616;23.350;2023-01-27T07:47:06;62103.44;;;0.97;100.00
6899;BME280;3488;42.616;23.350;2023-01-27T07:49:35;62113.75;;;1.10;100.00
6899;BME280;3488;42.616;23.350;2023-01-27T07:52:02;62077.91;;;0.77;100.00
6899;BME280;3488;42.616;23.350;2023-01-27T07:54:29;62033.38;;;0.36;100.00
6899;BME280;3488;42.616;23.350;2023-01-27T07:56:58;62032.22;;;0.30;100.00
6899;BME280;3488;42.616;23.350;2023-01-27T07:59:26;62054.72;;;0.50;100.00
6899;BME280;3488;42.616;23.350;2023-01-27T08:01:54;62063.56;;;0.63;100.00
6899;BME280;3488;42.616;23.350;2023-01-27T08:04:21;62075.34;;;0.75;100.00
6899;BME280;3488;42.616;23.350;2023-01-27T08:06:49;62026.66;;;0.27;100.00
6899;BME280;3488;42.616;23.350;2023-01-27T08:09:16;62018.50;;;0.22;100.00
6899;BME280;3488;42.616;23.350;2023-01-27T08:11:43;62041.50;;;0.42;100.00
6899;BME280;3488;42.616;23.350;2023-01-27T08:14:10;62031.88;;;0.37;100.00
6899;BME280;3488;42.616;23.350;2023-01-27T08:16:37;62015.44;;;0.19;100.00
6899;BME280;3488;42.616;23.350;2023-01-27T08:19:03;62032.28;;;0.33;100.00
6899;BME280;3488;42.616;23.350;2023-01-27T08:21:31;62007.63;;;0.06;100.00
6899;BME280;3488;42.616;23.350;2023-01-27T08:23:59;62003.06;;;0.04;100.00
6899;BME280;3488;42.616;23.350;2023-01-27T08:26:26;61994.81;;;-0.07;100.00
6899;BME280;3488;42.616;23.350;2023-01-27T08:28:53;61975.47;;;-0.21;100.00
6899;BME280;3488;42.616;23.350;2023-01-27T08:31:20;62016.84;;;0.15;100.00
6899;BME280;3488;42.616;23.350;2023-01-27T08:33:51;62015.88;;;0.17;100.00
6899;BME280;3488;42.616;23.350;2023-01-27T08:36:20;62021.53;;;0.22;100.00
6899;BME280;3488;42.616;23.350;2023-01-27T08:38:48;62011.78;;;0.13;100.00
6899;BME280;3488;42.616;23.350;2023-01-27T08:41:18;62025.56;;;0.24;100.00
6899;BME280;3488;42.616;23.350;2023-01-27T08:43:48;61991.28;;;-0.08;100.00
6899;BME280;3488;42.616;23.350;2023-01-27T08:46:15;62000.56;;;0.04;100.00
6899;BME280;3488;42.616;23.350;2023-01-27T08:48:43;61986.09;;;-0.15;100.00
6899;BME280;3488;42.616;23.350;2023-01-27T08:51:12;62011.22;;;0.10;100.00
6899;BME280;3488;42.616;23.350;2023-01-27T08:53:39;62017.81;;;0.14;100.00
6899;BME280;3488;42.616;23.350;2023-01-27T08:56:09;62010.75;;;0.12;100.00
6899;BME280;3488;42.616;23.350;2023-01-27T08:58:38;62041.06;;;0.44;100.00
6899;BME280;3488;42.616;23.350;2023-01-27T09:01:05;62067.03;;;0.62;100.00
6899;BME280;3488;42.616;23.350;2023-01-27T09:03:33;62073.88;;;0.76;100.00
6899;BME280;3488;42.616;23.350;2023-01-27T09:06:01;62094.31;;;0.93;100.00
6899;BME280;3488;42.616;23.350;2023-01-27T09:08:29;62103.63;;;1.05;100.00
6899;BME280;3488;42.616;23.350;2023-01-27T09:10:56;62087.13;;;0.86;100.00
6899;BME280;3488;42.616;23.350;2023-01-27T09:13:23;62064.00;;;0.61;100.00
6899;BME280;3488;42.616;23.350;2023-01-27T09:15:53;62080.97;;;0.80;100.00
6899;BME280;3488;42.616;23.350;2023-01-27T09:18:21;62082.59;;;0.84;100.00
6899;BME280;3488;42.616;23.350;2023-01-27T09:20:48;62092.22;;;0.89;100.00
6899;BME280;3488;42.616;23.350;2023-01-27T09:23:15;62086.19;;;0.88;100.00
6899;BME280;3488;42.616;23.350;2023-01-27T09:25:42;62098.41;;;0.97;100.00
6899;BME280;3488;42.616;23.350;2023-01-27T09:28:09;62083.03;;;0.82;100.00
6899;BME280;3488;42.616;23.350;2023-01-27T09:30:42;62085.03;;;0.82;100.00
6899;BME280;3488;42.616;23.350;2023-01-27T09:33:11;62088.16;;;0.87;100.00
6899;BME280;3488;42.616;23.350;2023-01-27T09:35:42;62093.28;;;0.92;100.00
6899;BME280;3488;42.616;23.350;2023-01-27T09:38:10;62098.41;;;0.97;100.00
6899;BME280;3488;42.616;23.350;2023-01-27T09:40:54;62097.41;;;0.96;100.00
6899;BME280;3488;42.616;23.350;2023-01-27T09:44:11;62079.38;;;0.76;100.00
6899;BME280;3488;42.616;23.350;2023-01-27T09:47:07;62067.19;;;0.69;100.00
6899;BME280;3488;42.616;23.350;2023-01-27T09:49:50;62089.19;;;0.88;100.00
6899;BME280;3488;42.616;23.350;2023-01-27T09:52:33;62085.66;;;0.87;100.00
6899;BME280;3488;42.616;23.350;2023-01-27T09:55:09;62047.66;;;0.48;100.00
6899;BME280;3488;42.616;23.350;2023-01-27T09:57:46;62055.81;;;0.53;100.00
6899;BME280;3488;42.616;23.350;2023-01-27T10:00:27;62076.44;;;0.78;100.00
6899;BME280;3488;42.616;23.350;2023-01-27T10:06:11;62097.41;;;0.96;100.00
6899;BME280;3488;42.616;23.350;2023-01-27T10:09:07;62096.47;;;1.00;100.00
6899;BME280;3488;42.616;23.350;2023-01-27T10:11:42;62104.06;;;1.03;100.00
6899;BME280;3488;42.616;23.350;2023-01-27T10:14:28;62081.50;;;0.81;100.00
6899;BME280;3488;42.616;23.350;2023-01-27T10:17:08;62077.47;;;0.79;100.00
6899;BME280;3488;42.616;23.350;2023-01-27T10:19:57;62052.72;;;0.50;100.00
6899;BME280;3488;42.616;23.350;2023-01-27T10:22:39;62013.38;;;0.17;100.00
6899;BME280;3488;42.616;23.350;2023-01-27T10:25:27;61992.44;;;-0.02;100.00
6899;BME280;3488;42.616;23.350;2023-01-27T10:28:01;61995.84;;;-0.06;100.00
6899;BME280;3488;42.616;23.350;2023-01-27T10:30:35;61990.78;;;-0.08;100.00
6899;BME280;3488;42.616;23.350;2023-01-27T10:33:08;62014.81;;;0.13;100.00
6899;BME280;3488;42.616;23.350;2023-01-27T10:35:43;62025.03;;;0.23;100.00
6899;BME280;3488;42.616;23.350;2023-01-27T10:38:21;62025.13;;;0.26;100.00
6899;BME280;3488;42.616;23.350;2023-01-27T10:40:58;61994.81;;;-0.07;100.00
6899;BME280;3488;42.616;23.350;2023-01-27T10:43:37;62002.06;;;0.03;100.00
6899;BME280;3488;42.616;23.350;2023-01-27T10:46:15;62009.69;;;0.08;100.00
6899;BME280;3488;42.616;23.350;2023-01-27T10:48:50;62024.59;;;0.25;100.00
6899;BME280;3488;42.616;23.350;2023-01-27T10:51:24;62055.81;;;0.53;100.00
6899;BME280;3488;42.616;23.350;2023-01-27T10:53:58;62043.56;;;0.44;100.00
6899;BME280;3488;42.616;23.350;2023-01-27T10:56:33;62042.47;;;0.40;100.00
6899;BME280;3488;42.616;23.350;2023-01-27T10:59:07;62046.13;;;0.46;100.00
6899;BME280;3488;42.616;23.350;2023-01-27T11:01:41;62057.91;;;0.58;100.00
6899;BME280;3488;42.616;23.350;2023-01-27T11:04:13;62059.97;;;0.60;100.00
6899;BME280;3488;42.616;23.350;2023-01-27T11:06:42;62056.41;;;0.59;100.00
6899;BME280;3488;42.616;23.350;2023-01-27T11:09:20;62077.31;;;0.74;100.00
6899;BME280;3488;42.616;23.350;2023-01-27T11:11:51;62079.44;;;0.79;100.00
6899;BME280;3488;42.616;23.350;2023-01-27T11:14:28;62073.72;;;0.71;100.00
6899;BME280;3488;42.616;23.350;2023-01-27T11:17:01;62099.44;;;0.98;100.00
6899;BME280;3488;42.616;23.350;2023-01-27T11:19:36;62095.78;;;0.92;100.00
6899;BME280;3488;42.616;23.350;2023-01-27T11:22:15;62089.69;;;0.89;100.00
6899;BME280;3488;42.616;23.350;2023-01-27T11:24:48;62092.13;;;0.86;100.00
6899;BME280;3488;42.616;23.350;2023-01-27T11:27:31;62087.53;;;0.82;100.00
6899;BME280;3488;42.616;23.350;2023-01-27T11:30:08;62075.34;;;0.75;100.00
6899;BME280;3488;42.616;23.350;2023-01-27T11:32:46;62075.28;;;0.72;100.00
6899;BME280;3488;42.616;23.350;2023-01-27T11:35:17;62076.88;;;0.76;100.00
6899;BME280;3488;42.616;23.350;2023-01-27T11:37:46;62070.66;;;0.68;100.00
6899;BME280;3488;42.616;23.350;2023-01-27T11:40:18;62053.31;;;0.53;100.00
6899;BME280;3488;42.616;23.350;2023-01-27T11:42:47;62035.94;;;0.39;100.00
6899;BME280;3488;42.616;23.350;2023-01-27T11:45:16;62054.78;;;0.52;100.00
6899;BME280;3488;42.616;23.350;2023-01-27T11:47:46;62048.63;;;0.46;100.00
6899;BME280;3488;42.616;23.350;2023-01-27T11:50:14;62044.59;;;0.45;100.00
6899;BME280;3488;42.616;23.350;2023-01-27T11:52:43;62042.59;;;0.45;100.00
6899;BME280;3488;42.616;23.350;2023-01-27T11:55:18;62036.44;;;0.39;100.00
6899;BME280;3488;42.616;23.350;2023-01-27T11:57:49;62015.47;;;0.21;100.00
6899;BME280;3488;42.616;23.350;2023-01-27T12:00:20;62035.88;;;0.36;100.00
6899;BME280;3488;42.616;23.350;2023-01-27T12:02:55;62055.34;;;0.55;100.00
6899;BME280;3488;42.616;23.350;2023-01-27T12:05:29;62065.09;;;0.65;100.00
6899;BME280;3488;42.616;23.350;2023-01-27T12:07:59;62071.75;;;0.71;100.00
6899;BME280;3488;42.616;23.350;2023-01-27T12:10:31;62054.88;;;0.57;100.00
6899;BME280;3488;42.616;23.350;2023-01-27T12:13:01;62069.25;;;0.71;100.00
6899;BME280;3488;42.616;23.350;2023-01-27T12:15:34;62087.00;;;0.81;100.00
6899;BME280;3488;42.616;23.350;2023-01-27T12:18:08;62091.81;;;0.93;100.00
6899;BME280;3488;42.616;23.350;2023-01-27T12:20:43;62103.53;;;1.02;100.00
6899;BME280;3488;42.616;23.350;2023-01-27T12:23:19;62075.41;;;0.77;100.00
6899;BME280;3488;42.616;23.350;2023-01-27T12:25:52;62078.81;;;0.73;100.00
6899;BME280;3488;42.616;23.350;2023-01-27T12:28:27;62099.50;;;1.01;100.00
6899;BME280;3488;42.616;23.350;2023-01-27T12:31:02;62097.91;;;0.97;100.00
6899;BME280;3488;42.616;23.350;2023-01-27T12:33:31;62089.25;;;0.91;100.00
6899;BME280;3488;42.616;23.350;2023-01-27T12:36:09;62086.03;;;0.83;100.00
6899;BME280;3488;42.616;23.350;2023-01-27T12:38:43;62081.94;;;0.79;100.00
6899;BME280;3488;42.616;23.350;2023-01-27T12:41:19;62101.00;;;1.00;100.00
6899;BME280;3488;42.616;23.350;2023-01-27T12:43:53;62090.72;;;0.90;100.00
6899;BME280;3488;42.616;23.350;2023-01-27T12:46:22;62096.38;;;0.95;100.00
6899;BME280;3488;42.616;23.350;2023-01-27T12:48:59;62112.81;;;1.14;100.00
6899;BME280;3488;42.616;23.350;2023-01-27T12:51:37;62101.03;;;1.02;100.00
6899;BME280;3488;42.616;23.350;2023-01-27T12:54:14;62099.31;;;0.93;100.00
6899;BME280;3488;42.616;23.350;2023-01-27T12:56:45;62100.41;;;0.97;100.00
6899;BME280;3488;42.616;23.350;2023-01-27T12:59:13;62037.97;;;0.41;100.00
6899;BME280;3488;42.616;23.350;2023-01-27T13:01:42;62096.38;;;0.95;100.00
6899;BME280;3488;42.616;23.350;2023-01-27T13:04:16;62100.47;;;0.99;100.00
6899;BME280;3488;42.616;23.350;2023-01-27T13:06:49;62102.47;;;0.99;100.00
6899;BME280;3488;42.616;23.350;2023-01-27T13:09:24;62097.50;;;1.01;100.00
6899;BME280;3488;42.616;23.350;2023-01-27T13:11:55;62090.22;;;0.89;100.00
6899;BME280;3488;42.616;23.350;2023-01-27T13:14:22;62089.75;;;0.91;100.00
6899;BME280;3488;42.616;23.350;2023-01-27T13:16:54;62090.72;;;0.90;100.00
6899;BME280;3488;42.616;23.350;2023-01-27T13:19:31;62075.34;;;0.75;100.00
6899;BME280;3488;42.616;23.350;2023-01-27T13:22:01;62083.53;;;0.83;100.00
6899;BME280;3488;42.616;23.350;2023-01-27T13:24:33;62066.69;;;0.69;100.00
6899;BME280;3488;42.616;23.350;2023-01-27T13:27:05;62057.38;;;0.57;100.00
6899;BME280;3488;42.616;23.350;2023-01-27T13:29:38;62061.56;;;0.64;100.00
6899;BME280;3488;42.616;23.350;2023-01-27T13:32:13;62034.78;;;0.33;100.00